Tiempo atmosférico en la estación meteorológica de Córdoba Aeropuerto, Córdoba (90 m.)



Fecha
DESCASC
Temp. máxima en grados centígrados (hora)
DESCASC
Temp. mínima en grados centígrados (hora)
DESCASC
Temp. media en grados centígrados
DESCASC
Racha de viento máxima en m/sg (hora)
DESCASC
Velocidad máxima media en intervalos de 10 minutos(hora)
DESCASC
Precipitaciones diarias en mm
DESCASC
Precipitaciones de 00:00 a 06:00 en mm
DESCASC
Precipitaciones de 06:00 a 12:00 en mm
DESCASC
Precipitaciones de 12:00 a 18:00 en mm
DESCASC
Precipitaciones de 18:00 a 24:00 en mm
DESCASC
17-10-2019 26.2 (17:00) 7.2 (08:40) 16.7 6.11 (16:00) 3.61 (17:40) 0 0 0 0 0
16-10-2019 25.5 (18:00) 6.5 (08:40) 16 -- (--) -- (--) 0 0 0 0 0
15-10-2019 22.8 (17:50) 8.2 (08:40) 15.5 5.83 (16:20) 3.33 (16:30) 0 0 0 0 0
14-10-2019 24.6 (16:20) 15.2 (23:59) 19.9 13.89 (18:20) 9.72 (19:30) 0.9 0 0.8 0 0.1
13-10-2019 32.2 (18:00) 19.7 (00:00) 26 9.17 (00:30) 5.83 (00:30) 0 0 0 0 0
12-10-2019 33.6 (17:00) 18.8 (00:00) 26.2 9.72 (19:00) 6.67 (19:00) 0 0 0 0 0
11-10-2019 30.9 (17:00) 16.3 (00:00) 23.6 5.83 (16:40) 3.33 (16:40) 0 0 0 0 0
10-10-2019 33.2 (17:10) 16.3 (00:00) 24.8 7.78 (15:50) 4.72 (19:20) 0 0 0 0 0
09-10-2019 33.5 (18:00) 15.3 (00:00) 24.4 5.83 (16:30) 3.89 (18:40) 0 0 0 0 0
08-10-2019 34.4 (16:50) 15.6 (00:00) 25 7.78 (15:50) 4.17 (16:00) 0 0 0 0 0
07-10-2019 35.1 (17:40) 12.8 (00:00) 23.9 7.22 (12:50) 5 (13:00) 0 0 0 0 0
06-10-2019 33.3 (17:30) 12.3 (00:00) 22.8 5.83 (17:40) 3.61 (18:40) 0 0 0 0 0
05-10-2019 31.3 (18:00) 13.5 (00:00) 22.4 6.67 (18:20) 4.44 (18:40) 0 0 0 0 0
04-10-2019 31.2 (17:30) 12.7 (00:00) 22 7.22 (17:40) 4.17 (10:50) 0 0 0 0 0
03-10-2019 30.4 (17:50) 12.4 (00:00) 21.4 8.33 (18:40) 5.83 (21:30) 0 0 0 0 0
02-10-2019 30.6 (16:00) 13.6 (00:00) 22.1 10.28 (15:40) 7.5 (16:10) 0 0 0 0 0
01-10-2019 32.2 (16:30) 15.4 (00:00) 23.8 10.83 (15:30) 7.78 (17:50) 0 0 0 0 0
30-09-2019 34.3 (17:50) 15.2 (00:00) 24.7 6.67 (18:10) 4.17 (18:40) 0 0 0 0 0
29-09-2019 34.5 (17:10) 14.5 (00:00) 24.5 7.78 (17:50) 4.44 (18:50) 0 0 0 0 0
28-09-2019 -- (--) -- (--) -- -- (--) -- (--) 0 0 0 0 0
27-09-2019 33.7 (17:40) 13.7 (00:00) 23.7 7.78 (16:20) 4.17 (17:50) 0 0 0 0 0
26-09-2019 33.2 (17:40) 13 (00:00) 23.1 7.78 (15:00) 3.89 (17:50) 0 0 0 0 0
25-09-2019 31.9 (17:10) 16.7 (00:00) 24.3 8.89 (16:10) -- (--) 0 0 0 0 0
24-09-2019 33.3 (17:20) 13.3 (00:00) 23.3 7.78 (17:30) 4.17 (18:00) 0 0 0 0 0
23-09-2019 30.9 (18:00) 12.6 (00:00) 21.8 6.67 (13:20) 3.61 (12:50) 0 0 0 0 0
22-09-2019 26.9 (17:20) 18.7 (00:00) 22.8 8.33 (17:00) 5.83 (18:10) 1.9 0 1.8 0.1 0
21-09-2019 26.2 (18:20) 20.3 (00:00) 23.3 8.33 (14:30) 5 (14:20) 0.1 0 0 0.1 0
20-09-2019 27.8 (15:00) 18 (00:00) 22.9 8.33 (17:10) 5.83 (17:20) 0 0 0 0 0

Gráficas

Temp. máximas Temp. mínimas Temp. medias Precipitaciones Rachas de viento máximas Velocidades máximas media en intervalos de 10 minutos

Datos horarios

Fecha y hora oficial Temperatura (ºC) Velocidad del viento (km/h) Dirección del viento Racha (km/h) Dirección de racha Precipitación (mm) Presión (hPa) Tendencia (hPa) Humedad (%)
2019-10-19 23:00:00 18.6 26 Sudoeste 58 Sudoeste 1.4 997 0.2 88
2019-10-19 22:00:00 19.6 22 Sudoeste 39 Sudoeste 1.4 996.7 0 85
2019-10-19 21:00:00 19.9 26 Sudoeste 37 Sudoeste 0.1 996.5 -0.8 81
2019-10-19 20:00:00 19.4 10 Oeste 52 Sudoeste 1.5 996.8 -1.1 88
2019-10-19 19:00:00 23.1 32 Sudoeste 48 Sudoeste 0 996.7 -2.2 58
2019-10-19 18:00:00 23.9 28 Sudoeste 48 Sudoeste 0 997.3 -2.4 52
2019-10-19 17:00:00 24.8 32 Sudoeste 46 Sudoeste 0 997.9 -3.1 48
2019-10-19 16:00:00 23.6 18 Sudoeste 30 Oeste 0 998.9 -3.4 51
2019-10-19 15:00:00 22.7 11 Oeste 28 Sudoeste 0 999.7 -2.8 56
2019-10-19 14:00:00 22 14 Oeste 26 Oeste 0 1001 -1.8 61
2019-10-19 13:00:00 20 19 Sudoeste 30 Sudoeste 0 1002.3 -0.7 73
2019-10-19 12:00:00 19.4 11 Oeste 17 Oeste 0 1002.5 -0.2 78
2019-10-19 11:00:00 18.4 7 Sudoeste 11 Sudoeste 0 1002.8 -0.1 84
2019-10-19 10:00:00 17.7 0 Calma 11 Sudoeste 0 1003 0 85
2019-10-19 09:00:00 17.3 6 Sudoeste 9 Oeste 0 1002.7 -0.4 88
2019-10-19 08:00:00 17.2 7 Oeste 11 Oeste 0 1002.9 -0.4 89
2019-10-19 07:00:00 17.3 7 Sudoeste 11 Oeste 0 1003 -0.7 89
2019-10-19 06:00:00 17.2 6 Sudoeste 13 Oeste 0 1003.1 -1 91
2019-10-19 05:00:00 17 9 Oeste 13 Oeste 0 1003.3 -1.3 91
2019-10-19 04:00:00 16.7 5 Oeste 9 Oeste 0 1003.7 -1.3 88
2019-10-19 03:00:00 17.9 5 Oeste 18 Sudoeste 0 1004.1 -1.1 85
2019-10-19 02:00:00 19.1 12 Sudoeste 24 Sudoeste 0 1004.6 -0.6 82
2019-10-19 01:00:00 20 14 Oeste 24 Oeste 0 1005 0 79
2019-10-19 00:00:00 20.2 11 Sudoeste 21 Sudoeste 0 1005.2 0.6 78
2019-10-18 23:00:00 20.6 10 Sudoeste 15 Sudoeste 0 1005.2 0.7 74
2019-10-18 22:00:00 21 10 Oeste 15 Oeste 0 1005 0.4 70
2019-10-18 21:00:00 21.9 8 Sudoeste 17 Oeste 0 1004.6 -0.5 65
2019-10-18 20:00:00 23.4 12 Oeste 24 Oeste 0 1004.5 -1.2 59
2019-10-18 19:00:00 24.1 15 Oeste 28 Oeste 0 1004.6 -1.5 56
2019-10-18 18:00:00 25 18 Sudoeste 33 Sudoeste 0 1005.1 -1.7 52
2019-10-18 17:00:00 25.3 19 Oeste 35 Oeste 0 1005.7 -2.2 52
2019-10-18 16:00:00 25 19 Oeste 32 Oeste 0 1006.1 -2.9 53
2019-10-18 15:00:00 23.8 15 Sudoeste 24 Oeste 0 1006.8 -2.8 55
2019-10-18 14:00:00 23.2 7 Sudoeste 17 Oeste 0 1007.9 -1.8 55
2019-10-18 13:00:00 21.9 4 Sudoeste 11 Sur 0 1009 -0.3 58
2019-10-18 12:00:00 20.5 4 Noroeste 9 Este 0 1009.6 1.1 62
2019-10-18 11:00:00 17.8 6 Este 11 Este 0 1009.7 1.3 62
2019-10-18 10:00:00 16.3 8 Nordeste 11 Nordeste 0 1009.3 0.7 65
2019-10-18 09:00:00 14.3 7 Este 9 Este 0 1008.5 0.2 76
2019-10-18 08:00:00 13.2 5 Este 8 Este 0 1008.4 0.1 79
2019-10-18 07:00:00 13.1 0 Calma 4 Este 0 1008.6 -0.1 80
2019-10-18 06:00:00 13.3 0 Calma -- -- 0 1008.3 -0.6 76
2019-10-18 05:00:00 13.8 2 Sudoeste 8 Sudoeste 0 1008.3 -0.6 74
2019-10-18 04:00:00 14.9 0 Calma -- -- 0 1008.7 -0.4 72
2019-10-18 03:00:00 16.1 6 Sudoeste 9 Oeste 0 1008.9 -0.2 69
2019-10-18 02:00:00 16.7 8 Oeste 11 Oeste 0 1008.9 0.2 63
2019-10-18 01:00:00 16.8 9 Oeste 11 Oeste 0 1009.1 0.7 58
2019-10-18 00:00:00 17.3 7 Oeste 9 Sur 0 1009.1 1.1 53
2019-10-17 23:00:00 18.1 7 Sur 9 Sur 0 1008.7 1.3 48
2019-10-17 22:00:00 18.8 5 Sudoeste 11 Oeste 0 1008.4 1.4 49
2019-10-17 21:00:00 20.7 6 Oeste 13 Oeste 0 1008 0.9 41
2019-10-17 20:00:00 22.9 12 Oeste 15 Oeste 0 1007.4 0 35
2019-10-17 19:00:00 25.5 9 Oeste 18 Oeste 0 1007 -0.9 29
2019-10-17 18:00:00 25.9 12 Oeste 21 Oeste 0 1007.1 -1.6 27
2019-10-17 17:00:00 26 12 Sudoeste 21 Sudoeste 0 1007.4 -2.3 25
2019-10-17 16:00:00 25.3 10 Oeste 22 Oeste 0 1007.9 -2.5 26
2019-10-17 15:00:00 24.4 6 Sudoeste 13 Sudoeste 0 1008.7 -2.3 28
2019-10-17 14:00:00 22.6 5 Sudeste 11 Este 0 1009.7 -1.5 30
2019-10-17 13:00:00 20.5 5 Este 13 Este 0 1010.4 -0.5 34
2019-10-17 12:00:00 18 8 Este 15 Este 0 1011 1.3 38
2019-10-17 11:00:00 15.1 10 Este 17 Este 0 1011.2 1.8 47
2019-10-17 10:00:00 12.2 5 Este 9 Este 0 1010.9 2 56
2019-10-17 09:00:00 7.6 0 Calma 4 Noroeste 0 1009.7 1.2 67
2019-10-17 08:00:00 7.4 0 Calma 8 Sur 0 1009.4 1 68
2019-10-17 07:00:00 8 4 Oeste 5 Oeste 0 1008.9 0.2 64
2019-10-17 06:00:00 8.7 3 Sur 4 Sur 0 1008.5 -0.2 63
2019-10-17 05:00:00 9.2 0 Calma 4 Oeste 0 1008.4 -0.2 60
2019-10-17 04:00:00 9.9 3 Sur -- -- 0 1008.7 0 59
2019-10-17 03:00:00 10.7 2 Sudoeste 5 Noroeste 0 1008.7 0.1 54
2019-10-17 02:00:00 11.9 3 Sur 8 Oeste 0 1008.6 0.3 50
2019-10-17 01:00:00 12.3 4 Oeste 9 Oeste 0 1008.7 0.7 50
2019-10-17 00:00:00 14 4 Sudoeste -- -- 0 1008.6 0.7 48
2019-10-16 23:00:00 15.5 4 Sudoeste -- -- 0 1008.3 1.1 44
2019-10-16 22:00:00 17.1 4 Sur 5 Sur 0 1008 1.2 37
2019-10-16 21:00:00 18.5 5 Oeste 11 Oeste 0 1007.9 1 33
2019-10-16 20:00:00 21.1 10 Oeste 13 Oeste 0 1007.2 -0.2 26
2019-10-16 19:00:00 24.7 7 Oeste -- -- -- 1006.8 -1.1 19
2019-10-16 18:00:00 25.3 4 Sur 17 Sudeste 0 1006.9 -2 19
2019-10-16 17:00:00 24.8 6 Este 17 Sur 0 1007.4 -2.7 19
2019-10-16 16:00:00 24.3 9 Sur 17 Sudoeste 0 1007.9 -3.2 23
2019-10-16 15:00:00 23.5 7 Sudoeste 13 Sudoeste 0 1008.9 -2.7 26
2019-10-16 14:00:00 22.1 4 Sur 21 Este 0 1010.1 -1.5 29
2019-10-16 13:00:00 20.3 9 Sudeste 22 Este 0 1011.1 -0.5 35
2019-10-16 12:00:00 17.8 16 Este -- -- -- 1011.6 0.6 44
2019-10-16 11:00:00 14.9 15 Este 22 Este 0 1011.6 0.9 54
2019-10-16 10:00:00 11.5 6 Este 13 Nordeste 0 1011.6 1 68
2019-10-16 09:00:00 7.1 2 Sur 5 Sur 0 1011 0.5 79
2019-10-16 08:00:00 7 3 Sudeste -- -- 0 1010.7 0 79
2019-10-16 07:00:00 7.1 0 Calma 4 Sur 0 1010.6 -0.3 77
2019-10-16 06:00:00 7.8 2 Oeste 4 Oeste 0 1010.5 -0.7 74
2019-10-16 05:00:00 8.2 2 Sur 5 Sudoeste 0 1010.7 -0.4 72
2019-10-16 04:00:00 8.6 3 Oeste 9 Sudoeste 0 1010.9 -0.5 70
2019-10-16 03:00:00 9.8 8 Oeste 9 Oeste 0 1011.2 0.1 69
2019-10-16 02:00:00 10.4 2 Sur 8 Sur 0 1011.1 0 65
2019-10-16 01:00:00 11.2 6 Sudoeste 8 Sudoeste 0 1011.4 0.8 64
2019-10-16 00:00:00 12.4 4 Sudoeste 8 Sur 0 1011.1 0.8 62
2019-10-15 23:00:00 13.9 3 Sur 8 Norte 0 1011.1 1.4 57
2019-10-15 22:00:00 15.6 0 Calma 9 Noroeste 0 1010.6 1.1 52
2019-10-15 21:00:00 16.9 8 Noroeste 9 Noroeste 0 1010.3 0.9 44
2019-10-15 20:00:00 19.4 4 Sudoeste 11 Sudoeste 0 1009.7 0.2 37
2019-10-15 19:00:00 21.6 9 Sudoeste 17 Sudoeste 0 1009.5 -0.3 32
2019-10-15 18:00:00 22.6 11 Sudoeste 21 Sudoeste 0 1009.4 -1.1 29
2019-10-15 17:00:00 22.3 10 Sudoeste 21 Sudoeste 0 1009.5 -1.7 30
2019-10-15 16:00:00 22 8 Oeste 18 Sudoeste 0 1009.8 -2.1 31
2019-10-15 15:00:00 21.4 8 Sur 17 Este 0 1010.5 -2 33
2019-10-15 14:00:00 20.7 7 Este 15 Este 0 1011.2 -1.5 37
2019-10-15 13:00:00 18.8 9 Este 17 Este 0 1011.9 -0.2 45
2019-10-15 12:00:00 16.9 7 Este 15 Este 0 1012.5 0.9 53
2019-10-15 11:00:00 14.4 4 Este 9 Sudeste 0 1012.7 1.6 77
2019-10-15 10:00:00 11.6 0 Calma 5 Sur 0 1012.1 1.3 88
2019-10-15 09:00:00 8.4 4 Sur 8 Sur 0 1011.6 1 94
2019-10-15 08:00:00 8.6 3 Sur 9 Sudoeste 0 1011.1 0.6 94
2019-10-15 07:00:00 9.2 4 Oeste 11 Sur 0 1010.8 0.2 94
2019-10-15 06:00:00 10.1 2 Sur 11 Oeste 0 1010.6 0.1 93
2019-10-15 05:00:00 10.3 5 Sur 9 Noroeste 0 1010.5 0.3 92
2019-10-15 04:00:00 11.2 5 Sudoeste 5 Sudoeste 0 1010.6 0.7 91
2019-10-15 03:00:00 12 3 Sudoeste 9 Oeste 0 1010.5 1 90
2019-10-15 02:00:00 12.7 4 Sudoeste 8 Sudoeste 0 1010.2 1.4 89
2019-10-15 01:00:00 13.6 8 Oeste 13 Oeste 0 1009.9 1.9 87
2019-10-15 00:00:00 15.3 4 Oeste 11 Sudoeste 0 1009.5 2 83
2019-10-14 23:00:00 16.4 6 Sur 11 Sur 0 1008.8 2.7 80
2019-10-14 22:00:00 16.6 5 Oeste 24 Oeste 0.1 1008 2.8 75
2019-10-14 21:00:00 18.4 12 Oeste 35 Sudoeste 0 1007.5 2.7 73
2019-10-14 20:00:00 20.9 28 Sudoeste 50 Sudoeste 0 1006.1 1.5 50
2019-10-14 19:00:00 22.2 34 Sudoeste 50 Sudoeste 0 1005.2 0.5 42
2019-10-14 18:00:00 23.8 28 Sudoeste 45 Sudoeste 0 1004.8 -0.2 45
2019-10-14 17:00:00 23.8 31 Oeste 46 Sudoeste 0 1004.6 -1 42
2019-10-14 16:00:00 24.1 30 Sudoeste 42 Oeste 0 1004.7 -1 46
2019-10-14 15:00:00 22.1 19 Oeste 35 Sudoeste 0 1005 -1 57
2019-10-14 14:00:00 22 25 Oeste 37 Sudoeste 0 1005.6 0 57
2019-10-14 13:00:00 20.4 17 Oeste 26 Oeste 0 1005.7 0.6 74
2019-10-14 12:00:00 18.8 17 Oeste 35 Oeste 0.4 1006 1.8 84
2019-10-14 11:00:00 19.4 14 Oeste 37 Oeste 0 1005.6 2.1 81
2019-10-14 10:00:00 18.7 24 Sudoeste 39 Oeste 0.4 1005.1 1.8 81
2019-10-14 09:00:00 19.2 4 Oeste 15 Oeste 0 1004.2 1.3 83
2019-10-14 08:00:00 19.1 10 Oeste 32 Oeste 0 1003.5 1.9 82
2019-10-14 07:00:00 19.2 18 Oeste 30 Oeste 0 1003.3 1.8 78
2019-10-14 06:00:00 20 23 Oeste 41 Oeste 0 1002.9 1 71
2019-10-14 05:00:00 19.9 10 Sudoeste 18 Oeste 0 1001.6 0 64
2019-10-14 04:00:00 20.7 13 Oeste 26 Oeste 0 1001.5 0.2 59
2019-10-14 03:00:00 22.2 17 Oeste 24 Oeste 0 1001.9 0.1 50
2019-10-14 02:00:00 23.1 4 Sudoeste 15 Sudoeste 0 1001.6 0.1 45
2019-10-14 01:00:00 23 8 Este 13 Este 0 1001.3 -0.2 45
2019-10-14 00:00:00 22.8 5 Noroeste 15 Oeste 0 1001.8 0.6 50
2019-10-13 23:00:00 22.8 5 Sudoeste 8 Sudoeste 0 1001.5 0.3 53
2019-10-13 22:00:00 23.2 6 Noroeste 13 Sudoeste 0 1001.5 0.4 51
2019-10-13 21:00:00 25.7 4 Sudoeste 13 Sudoeste 0 1001.2 -0.2 44
2019-10-13 20:00:00 28 10 Sudoeste 15 Oeste 0 1001.2 -0.6 39
2019-10-13 19:00:00 31 6 Oeste 15 Sudoeste 0 1001.1 -1.4 30
2019-10-13 18:00:00 32 3 Sudoeste 13 Norte 0 1001.4 -2 29
2019-10-13 17:00:00 31.6 4 Sudeste 13 Sudoeste 0 1001.8 -3 29
2019-10-13 16:00:00 29.9 5 Sudeste 13 Oeste 0 1002.5 -3.2 33
2019-10-13 15:00:00 28.7 8 Este 22 Sur 0 1003.4 -2.8 39
2019-10-13 14:00:00 27.2 9 Sudeste 18 Sur 0 1004.8 -1.6 45
2019-10-13 13:00:00 25.6 6 Sudeste 18 Sudeste 0 1005.7 -0.5 52
2019-10-13 12:00:00 24.3 7 Sudoeste 13 Oeste 0 1006.2 0.7 56
2019-10-13 11:00:00 23.3 4 Este 8 Norte 0 1006.4 1.2 60
2019-10-13 10:00:00 21 4 Oeste 5 Sudoeste 0 1006.2 1 72
2019-10-13 09:00:00 19.8 2 Sur 8 Sur 0 1005.5 0.5 78
2019-10-13 08:00:00 20 6 Sudoeste 9 Sudoeste 0 1005.2 0.3 79
2019-10-13 07:00:00 20.1 8 Sudoeste 13 Oeste 0 1005.2 0 80
2019-10-13 06:00:00 20.4 8 Oeste 18 Oeste 0 1005 -0.5 79
2019-10-13 05:00:00 20.7 12 Oeste 18 Oeste 0 1004.9 -0.8 80
2019-10-13 04:00:00 20.8 9 Oeste 15 Oeste 0 1005.2 -0.6 80
2019-10-13 03:00:00 20.7 10 Oeste 17 Oeste 0 1005.5 0.2 80
2019-10-13 02:00:00 21.3 12 Sudoeste 26 Oeste 0 1005.7 0.8 77
2019-10-13 01:00:00 21.3 15 Oeste 33 Oeste 0 1005.8 1.9 77
2019-10-13 00:00:00 22.7 16 Oeste 32 Sudoeste 0 1005.3 2.1 71
2019-10-12 23:00:00 24.5 23 Oeste 35 Oeste 0 1004.9 2.3 62
2019-10-12 22:00:00 26 17 Oeste 32 Oeste 0 1003.9 1.8 54
2019-10-12 21:00:00 27.2 14 Oeste 30 Oeste 0 1003.2 1.2 46
2019-10-12 20:00:00 28.7 18 Oeste 30 Oeste 0 1002.6 0.4 36
2019-10-12 19:00:00 30.5 24 Oeste 35 Oeste 0 1002.1 -0.4 29
2019-10-12 18:00:00 32.9 16 Sudoeste 28 Sudoeste 0 1002 -1.5 23
2019-10-12 17:00:00 33.5 12 Sur 22 Sur 0 1002.2 -2.1 22
2019-10-12 16:00:00 32.1 6 Sudeste 15 Oeste 0 1002.5 -2.5 27
2019-10-12 15:00:00 31.1 4 Sudeste 17 Este 0 1003.5 -2 29
2019-10-12 14:00:00 28.9 11 Nordeste 18 Este 0 1004.3 -1.4 33
2019-10-12 13:00:00 27.6 11 Este 26 Este 0 1005 -0.6 36
2019-10-12 12:00:00 25.1 14 Este 26 Nordeste 0 1005.5 1 44
2019-10-12 11:00:00 23.9 17 Nordeste 24 Nordeste 0 1005.7 0.6 46
2019-10-12 10:00:00 21.4 6 Este 13 Sur 0 1005.6 0.5 54
2019-10-12 09:00:00 19.1 7 Este 11 Nordeste 0 1004.5 -0.2 64
2019-10-12 08:00:00 19.1 5 Nordeste -- -- -- 1005.1 0.3 63
2019-10-12 07:00:00 19.6 0 Calma 11 Este 0 1005.1 -0.5 60
2019-10-12 06:00:00 20.3 8 Este 17 Este 0 1004.7 -1.4 58
2019-10-12 05:00:00 20.1 9 Este 15 Este 0 1004.8 -1.2 60
2019-10-12 04:00:00 19.7 9 Norte 11 Norte 0 1005.6 -0.8 59
2019-10-12 03:00:00 19.6 3 Sur 9 Sudoeste 0 1006.1 -0.7 59
2019-10-12 02:00:00 20.3 6 Este 8 Este 0 1006 -0.4 57
2019-10-12 01:00:00 21.1 2 Sudeste 8 Este 0 1006.4 0.4 56
2019-10-12 00:00:00 22.4 7 Sudoeste 9 Sudoeste 0 1006.8 1.3 50
2019-10-11 23:00:00 23.6 4 Sudoeste 11 Oeste 0 1006.4 1.5 45
2019-10-11 22:00:00 25.4 4 Norte 21 Sudoeste 0 1006 0.9 39
2019-10-11 21:00:00 25.6 7 Oeste 13 Sur 0 1005.5 0.2 40
2019-10-11 20:00:00 27.5 10 Sur 15 Sur 0 1004.9 -0.8 33
2019-10-11 19:00:00 29.4 5 Oeste -- -- -- 1005.1 -1.3 26
2019-10-11 18:00:00 30.1 12 Sur 18 Sur 0 1005.3 -1.4 24
2019-10-11 17:00:00 30.9 6 Sudoeste 21 Sudoeste 0 1005.7 -2 24
2019-10-11 16:00:00 29.6 5 Sudoeste 13 Sudoeste 0 1006.4 -2.3 37
2019-10-11 15:00:00 27.3 8 Nordeste 13 Norte 0 1006.7 -2.2 44
2019-10-11 14:00:00 26.6 4 Este 15 Nordeste 0 1007.7 -1.7 46
2019-10-11 13:00:00 24.5 6 Nordeste 13 Nordeste 0 1008.7 -0.2 56
2019-10-11 12:00:00 23.3 8 Este 13 Este 0 1008.9 0.5 61
2019-10-11 11:00:00 21.7 0 Calma -- -- 0 1009.4 1.4 65
2019-10-11 10:00:00 21 0 Calma 4 Este 0 1008.9 1.3 67
2019-10-11 09:00:00 17.7 0 Calma 2 Nordeste 0 1008.4 1 76
2019-10-11 08:00:00 16.4 0 Calma 2 Sudeste 0 1008 0.6 77
2019-10-11 07:00:00 16.5 0 Calma 2 Oeste 0 1007.6 0 76
2019-10-11 06:00:00 17.1 0 Calma -- -- 0 1007.4 -0.3 72
2019-10-11 05:00:00 17.7 0 Calma -- -- 0 1007.4 -0.4 68
2019-10-11 04:00:00 18.7 0 Calma -- -- 0 1007.6 0 64
2019-10-11 03:00:00 19.6 0 Calma 2 Sur 0 1007.7 0.2 63
2019-10-11 02:00:00 19.9 0 Calma 8 Sudoeste 0 1007.8 0.8 60
2019-10-11 01:00:00 21.5 0 Calma -- -- 0 1007.6 1.1 51
2019-10-11 00:00:00 22.1 3 Sudoeste 9 Sudoeste 0 1007.5 1.7 48
2019-10-10 23:00:00 23.6 0 Calma 15 Oeste 0 1007 1.8 42
2019-10-10 22:00:00 25.6 9 Oeste 22 Oeste 0 1006.5 1.6 36
2019-10-10 21:00:00 27.9 12 Sudoeste 24 Sur 0 1005.8 1 30
2019-10-10 20:00:00 28.6 14 Sur 22 Sur 0 1005.2 0.3 30
2019-10-10 19:00:00 31.9 14 Sur 22 Sur 0 1004.9 -0.3 27
2019-10-10 18:00:00 32.7 14 Sur 28 Sur 0 1004.8 -0.8 27
2019-10-10 17:00:00 32.9 14 Sudoeste 26 Sudoeste 0 1004.9 -1.7 29
2019-10-10 16:00:00 32.7 14 Sur 28 Sur 0 1005.2 -2.1 30
2019-10-10 15:00:00 31.8 10 Sur 24 Sudoeste 0 1005.6 -2.2 31
2019-10-10 14:00:00 31 13 Sudoeste 24 Sur 0 1006.6 -1.2 32
2019-10-10 13:00:00 28.9 12 Sudeste 21 Sur 0 1007.3 -0.1 38
2019-10-10 12:00:00 26.3 3 Este 15 Este 0 1007.8 1.2 41
2019-10-10 11:00:00 24.1 10 Nordeste 15 Nordeste 0 1007.8 1.7 46
2019-10-10 10:00:00 20.8 8 Este 11 Este 0 1007.4 1.8 56
2019-10-10 09:00:00 16.6 0 Calma 4 Sudoeste 0 1006.6 1.4 67
2019-10-10 08:00:00 16.4 0 Calma 8 Oeste 0 1006.1 1 67
2019-10-10 07:00:00 16.8 0 Calma 4 Sur 0 1005.6 0.5 67
2019-10-10 06:00:00 17.4 0 Calma -- -- 0 1005.2 0 66
2019-10-10 05:00:00 17.7 0 Calma 4 Sudoeste 0 1005.1 0.1 63
2019-10-10 04:00:00 18.6 0 Calma 2 Sudoeste 0 1005.1 0.2 61
2019-10-10 03:00:00 19.2 0 Calma 4 Este 0 1005.2 0.6 59
2019-10-10 02:00:00 20.6 0 Calma 4 Este 0 1005 0.9 57
2019-10-10 01:00:00 21.7 4 Este 9 Noroeste 0 1004.9 1 52
2019-10-10 00:00:00 22.6 0 Calma 9 Oeste 0 1004.6 1.2 49
2019-10-09 23:00:00 23.5 0 Calma 9 Sur 0 1004.1 1 44
2019-10-09 22:00:00 24.4 3 Sur 9 Sudoeste 0 1003.9 1.2 44
2019-10-09 21:00:00 27.2 2 Sudoeste 9 Oeste 0 1003.4 0.7 33
2019-10-09 20:00:00 29.9 9 Oeste 15 Oeste 0 1003.1 0 28
2019-10-09 19:00:00 33 12 Oeste 21 Oeste 0 1002.7 -1 23
2019-10-09 18:00:00 33.4 12 Oeste 21 Oeste 0 1002.7 -1.6 24
2019-10-09 17:00:00 33 12 Oeste 21 Oeste 0 1003.1 -2.2 25
2019-10-09 16:00:00 32 9 Oeste 18 Oeste 0 1003.7 -2.5 27
2019-10-09 15:00:00 30.8 10 Sudoeste 17 Sudoeste 0 1004.3 -2.2 30
2019-10-09 14:00:00 29.3 6 Sur 15 Sudoeste 0 1005.3 -1.4 33
2019-10-09 13:00:00 27.7 2 Sur 13 Sur 0 1006.2 -0.3 37
2019-10-09 12:00:00 25.7 4 Sur 13 Sur 0 1006.5 0.6 42
2019-10-09 11:00:00 22.9 7 Este 13 Este 0 1006.7 1.3 49
2019-10-09 10:00:00 19.6 0 Calma -- -- 0 1006.5 1.2 60
2019-10-09 09:00:00 16 0 Calma -- -- 0 1005.9 0.9 70
2019-10-09 08:00:00 15.8 0 Calma -- -- 0 1005.4 0.4 72
2019-10-09 07:00:00 16.1 4 Norte 8 Noroeste 0 1005.3 0 71
2019-10-09 06:00:00 16.9 0 Calma -- -- 0 1005 -0.6 68
2019-10-09 05:00:00 17.7 0 Calma -- -- 0 1005 -0.7 65
2019-10-09 04:00:00 17.9 0 Calma -- -- 0 1005.3 -0.6 62
2019-10-09 03:00:00 19.3 0 Calma -- -- 0 1005.6 -0.4 57
2019-10-09 02:00:00 19.9 0 Calma -- -- 0 1005.7 0.2 56
2019-10-09 01:00:00 21.4 0 Calma 11 Sur 0 1005.9 1.2 50
2019-10-09 00:00:00 22.7 0 Calma 11 Sudoeste 0 1006 1.4 44
2019-10-08 23:00:00 24.4 14 Sudoeste 21 Sudoeste 0 1005.5 1.5 40
2019-10-08 22:00:00 26.8 0 Calma 17 Sur 0 1004.7 1.1 32
2019-10-08 21:00:00 27.8 10 Sur 22 Sur 0 1004.6 0.8 30
2019-10-08 20:00:00 30.2 13 Sur 21 Sur 0 1004 -0.1 26
2019-10-08 19:00:00 32.9 15 Sur 24 Sur 0 1003.6 -1 21
2019-10-08 18:00:00 33.9 13 Sur 22 Sur 0 1003.8 -1.6 23
2019-10-08 17:00:00 34.2 10 Sudoeste 22 Sudoeste 0 1004.1 -2.2 21
2019-10-08 16:00:00 34 15 Sur 28 Sur 0 1004.6 -2.5 21
2019-10-08 15:00:00 32.9 9 Sudoeste 17 Sur 0 1005.4 -2.2 22
2019-10-08 14:00:00 31.8 2 Sudeste 13 Sur 0 1006.3 -1.4 24
2019-10-08 13:00:00 29.5 0 Calma 13 Nordeste 0 1007.1 -0.6 28
2019-10-08 12:00:00 26.5 6 Nordeste 15 Nordeste 0 1007.6 0.7 31
2019-10-08 11:00:00 24 10 Este 13 Este 0 1007.7 1.5 37
2019-10-08 10:00:00 20.1 0 Calma 8 Sudoeste 0 1007.7 1.7 47
2019-10-08 09:00:00 16.7 0 Calma 8 Nordeste 0 1006.9 1.3 57
2019-10-08 08:00:00 16.3 0 Calma 11 Norte 0 1006.2 0.6 56
2019-10-08 07:00:00 16.8 4 Nordeste 9 Este 0 1006 0.1 57
2019-10-08 06:00:00 16.2 0 Calma 8 Este 0 1005.6 -0.4 57
2019-10-08 05:00:00 16.5 0 Calma 8 Sudoeste 0 1005.6 0 56
2019-10-08 04:00:00 16.9 6 Oeste 8 Oeste 0 1005.9 0.3 58
2019-10-08 03:00:00 18.6 8 Nordeste 9 Nordeste 0 1006 0.4 50
2019-10-08 02:00:00 18.2 0 Calma 8 Este 0 1005.6 0.1 50
2019-10-08 01:00:00 19.4 0 Calma 9 Nordeste 0 1005.6 0.5 48
2019-10-08 00:00:00 21 8 Norte 9 Nordeste 0 1005.6 1 43
2019-10-07 23:00:00 22.2 0 Calma 5 Nordeste 0 1005.5 1.2 38
2019-10-07 22:00:00 24.2 4 Sur 5 Sur 0 1005.1 1.1 34
2019-10-07 21:00:00 27 0 Calma 9 Noroeste 0 1004.6 0.6 25
2019-10-07 20:00:00 30.8 5 Oeste 9 Oeste 0 1004.3 0 19
2019-10-07 19:00:00 34.5 6 Oeste 13 Oeste 0 1004 -0.7 15
2019-10-07 18:00:00 34.8 6 Oeste 17 Sudoeste 0 1004 -1.6 15
2019-10-07 17:00:00 34.5 3 Noroeste 15 Este 0 1004.3 -2.3 15
2019-10-07 16:00:00 33.6 6 Este 24 Este 0 1004.7 -2.7 15
2019-10-07 15:00:00 31.9 13 Este 24 Este 0 1005.6 -2.1 17
2019-10-07 14:00:00 29.9 11 Este 24 Este 0 1006.6 -1.6 21
2019-10-07 13:00:00 28.2 18 Nordeste 26 Nordeste 0 1007.4 -0.5 23
2019-10-07 12:00:00 24.8 13 Nordeste 21 Nordeste 0 1007.7 0.4 31
2019-10-07 11:00:00 22.3 11 Nordeste 15 Nordeste 0 1008.2 0.9 36
2019-10-07 10:00:00 18.2 13 Este 18 Este 0 1007.9 1.1 48
2019-10-07 09:00:00 13.4 0 Calma 5 Nordeste 0 1007.3 1 69
2019-10-07 08:00:00 12.9 2 Este 5 Sudoeste 0 1007.3 0.8 69
2019-10-07 07:00:00 13 4 Oeste 8 Noroeste 0 1006.8 -0.2 69
2019-10-07 06:00:00 14.2 3 Nordeste 5 Norte 0 1006.3 -1.3 67
2019-10-07 05:00:00 14.3 0 Calma -- -- 0 1006.5 -0.9 65
2019-10-07 04:00:00 15.4 3 Sudoeste 5 Oeste 0 1007 -0.6 60
2019-10-07 03:00:00 16.3 0 Calma 5 Sudeste 0 1007.6 0 59
2019-10-07 02:00:00 17 5 Noroeste 8 Noroeste 0 1007.4 0.1 55
2019-10-07 01:00:00 18.7 0 Calma 8 Norte 0 1007.6 0.9 52
2019-10-07 00:00:00 19.4 0 Calma 8 Sudoeste 0 1007.6 1.4 48
2019-10-06 23:00:00 21.6 0 Calma 8 Sur 0 1007.3 1.5 42
2019-10-06 22:00:00 23.9 7 Sur 9 Sur 0 1006.7 1.2 36
2019-10-06 21:00:00 25.9 3 Sur 13 Oeste 0 1006.2 0.6 29
2019-10-06 20:00:00 28.5 10 Oeste 15 Oeste 0 1005.8 0 25
2019-10-06 19:00:00 31.4 10 Oeste 18 Oeste 0 1005.5 -1 19
2019-10-06 18:00:00 32.6 8 Sudoeste 21 Oeste 0 1005.6 -1.6 19
2019-10-06 17:00:00 33 4 Sudoeste 15 Oeste 0 1005.8 -2.3 20
2019-10-06 16:00:00 31.8 4 Sur 13 Oeste 0 1006.5 -2.2 20
2019-10-06 15:00:00 30.2 5 Sudoeste 13 Sur 0 1007.2 -2.1 24
2019-10-06 14:00:00 28.7 5 Sur 13 Nordeste 0 1008.1 -1 29
2019-10-06 13:00:00 26.1 7 Este 13 Este 0 1008.7 0.1 34
2019-10-06 12:00:00 23.2 3 Este 15 Este 0 1009.3 1 41
2019-10-06 11:00:00 20.8 10 Este 17 Este 0 1009.1 1.4 49
2019-10-06 10:00:00 17.4 3 Nordeste 9 Nordeste 0 1008.6 1.4 66
2019-10-06 09:00:00 13.1 0 Calma 8 Sur 0 1008.3 1.3 80
2019-10-06 08:00:00 12.7 0 Calma 5 Sur 0 1007.7 0.8 82
2019-10-06 07:00:00 12.9 0 Calma 9 Sudeste 0 1007.2 0.4 81
2019-10-06 06:00:00 14.3 3 Sudeste 8 Sur 0 1007 0.1 80
2019-10-06 05:00:00 15.3 0 Calma -- -- 0 1006.9 0.4 74
2019-10-06 04:00:00 16.3 0 Calma 9 Noroeste 0 1006.8 0.5 73
2019-10-06 03:00:00 17.5 0 Calma -- -- -- 1006.9 0.7 66
2019-10-06 02:00:00 19.5 4 Oeste 13 Oeste 0 1006.5 0.5 61
2019-10-06 01:00:00 20 7 Oeste 9 Oeste 0 1006.3 0.9 59
2019-10-06 00:00:00 20.3 0 Calma 9 Sur 0 1006.2 1.5 56
2019-10-05 23:00:00 21.9 11 Sur 11 Sur 0 1006 1.8 49
2019-10-05 22:00:00 23.1 6 Sur 15 Oeste 0 1005.4 1.5 47
2019-10-05 21:00:00 25.3 9 Oeste 11 Oeste 0 1004.7 0.9 39
2019-10-05 20:00:00 28.2 10 Sudoeste 17 Sudoeste 0 1004.2 0.4 30
2019-10-05 19:00:00 30.6 13 Oeste 24 Oeste 0 1003.9 -0.3 25
2019-10-05 18:00:00 31.2 15 Oeste 22 Oeste 0 1003.8 -0.8 26
2019-10-05 17:00:00 31 13 Sudoeste 22 Oeste 0 1003.8 -1.7 26
2019-10-05 16:00:00 30.4 12 Sudoeste 21 Sudoeste 0 1004.2 -2 28
2019-10-05 15:00:00 29.9 5 Sudoeste 15 Sur 0 1004.6 -1.9 31
2019-10-05 14:00:00 28.2 4 Sur 15 Sur 0 1005.5 -1.1 36
2019-10-05 13:00:00 25.9 4 Este 13 Este 0 1006.2 -0.1 44
2019-10-05 12:00:00 23.3 7 Este 18 Sur 0 1006.5 0.6 51
2019-10-05 11:00:00 21 9 Este 15 Este 0 1006.6 1.2 55
2019-10-05 10:00:00 18.2 5 Este 9 Este 0 1006.3 1.1 67
2019-10-05 09:00:00 13.8 0 Calma 5 Sur 0 1005.9 0.6 82
2019-10-05 08:00:00 13.6 0 Calma 4 Sudoeste 0 1005.4 0.2 83
2019-10-05 07:00:00 14.6 4 Este 5 Este 0 1005.2 -0.2 81
2019-10-05 06:00:00 15.2 0 Calma 5 Sudoeste 0 1005.3 -0.3 78
2019-10-05 05:00:00 16.4 2 Oeste 8 Oeste 0 1005.2 -0.2 73
2019-10-05 04:00:00 16.7 7 Oeste 13 Sudoeste 0 1005.4 -0.2 71
2019-10-05 03:00:00 18.7 10 Sudoeste -- -- -- 1005.6 0.3 67
2019-10-05 02:00:00 19 6 Oeste 11 Oeste 0 1005.4 0.3 65
2019-10-05 01:00:00 19 5 Oeste 11 Oeste 0 1005.6 1 59
2019-10-05 00:00:00 20.4 8 Sudoeste 17 Oeste 0 1005.3 0.8 53
2019-10-04 23:00:00 21.4 10 Sudoeste 13 Sudoeste 0 1005.1 1.1 47
2019-10-04 22:00:00 22.3 7 Oeste 13 Oeste 0 1004.6 0.6 44
2019-10-04 21:00:00 24.3 10 Oeste 13 Oeste 0 1004.5 0.4 37
2019-10-04 20:00:00 27.7 10 Oeste 21 Oeste 0 1004 -0.2 29
2019-10-04 19:00:00 30.4 13 Oeste 22 Sudoeste 0 1004 -0.8 24
2019-10-04 18:00:00 31 15 Oeste 26 Oeste 0 1004.1 -1.6 23
2019-10-04 17:00:00 31 11 Oeste 22 Sudoeste 0 1004.2 -2.5 21
2019-10-04 16:00:00 30.6 5 Oeste 17 Oeste 0 1004.8 -2.7 25
2019-10-04 15:00:00 29.4 2 Sur 18 Sur 0 1005.7 -2.4 28
2019-10-04 14:00:00 26.6 5 Este 15 Nordeste 0 1006.7 -1.9 36
2019-10-04 13:00:00 24.7 5 Este 18 Este 0 1007.5 -1.2 46
2019-10-04 12:00:00 21.9 13 Este 18 Este 0 1008.1 -0.4 56
2019-10-04 11:00:00 19.6 14 Este 21 Este 0 1008.6 0.7 56
2019-10-04 10:00:00 17.3 11 Este 17 Este 0 1008.7 0.8 63
2019-10-04 09:00:00 13.5 0 Calma 9 Este 0 1008.5 0.7 80
2019-10-04 08:00:00 12.9 7 Este 9 Este 0 1007.9 0 85
2019-10-04 07:00:00 13 0 Calma -- -- 0 1007.9 0 82
2019-10-04 06:00:00 13.4 0 Calma -- -- 0 1007.8 -0.4 82
2019-10-04 05:00:00 14 0 Calma -- -- 0 1007.9 -0.3 82
2019-10-04 04:00:00 14.9 0 Calma 5 Oeste 0 1007.9 -0.4 80
2019-10-04 03:00:00 16.1 5 Sudoeste -- -- -- 1008.2 0 73
2019-10-04 02:00:00 17.5 7 Sudoeste 13 Oeste 0 1008.2 0.5 70
2019-10-04 01:00:00 18.5 11 Oeste 13 Oeste 0 1008.3 0.9 66
2019-10-04 00:00:00 20 9 Sudoeste 17 Oeste 0 1008.2 1.7 56
2019-10-03 23:00:00 21.1 13 Oeste 18 Oeste 0 1007.7 1.4 46
2019-10-03 22:00:00 23.7 15 Oeste 30 Sudoeste 0 1007.4 1.4 34
2019-10-03 21:00:00 24.1 10 Oeste 17 Oeste 0 1006.5 0.5 35
2019-10-03 20:00:00 27.6 14 Oeste 24 Oeste 0 1006.3 0 27
2019-10-03 19:00:00 29.5 16 Oeste 30 Oeste 0 1006 -0.8 25
2019-10-03 18:00:00 30.3 16 Oeste 28 Oeste 0 1006 -1.5 24
2019-10-03 17:00:00 29.9 17 Sudoeste 28 Oeste 0 1006.3 -2.4 26
2019-10-03 16:00:00 28.9 14 Oeste 26 Oeste 0 1006.8 -2.5 29
2019-10-03 15:00:00 27.4 15 Oeste 24 Sudoeste 0 1007.5 -2.6 34
2019-10-03 14:00:00 25.9 12 Sudoeste 21 Sudoeste 0 1008.7 -1.3 41
2019-10-03 13:00:00 23.3 5 Sudoeste 15 Sudoeste 0 1009.3 -0.2 54
2019-10-03 12:00:00 20.7 7 Oeste 15 Oeste 0 1010.1 1.1 64
2019-10-03 11:00:00 19 3 Sudeste 5 Este 0 1010 1.3 67
2019-10-03 10:00:00 16.2 0 Calma 4 Noroeste 0 1009.5 1.4 72
2019-10-03 09:00:00 13.1 0 Calma -- -- 0 1009 1 84
2019-10-03 08:00:00 12.6 0 Calma 2 Sudoeste 0 1008.7 0.8 84
2019-10-03 07:00:00 12.9 0 Calma 8 Sudoeste 0 1008.1 0.2 84
2019-10-03 06:00:00 13.4 6 Sur 9 Sur 0 1008 0.1 82
2019-10-03 05:00:00 14.2 6 Sur 8 Sudoeste 0 1007.9 0 80
2019-10-03 04:00:00 15.4 4 Sudoeste 8 Oeste 0 1007.9 0.1 78
2019-10-03 03:00:00 16.3 8 Oeste -- -- -- 1007.9 0.2 76
2019-10-03 02:00:00 18 10 Oeste 18 Oeste 0 1007.9 0.6 73
2019-10-03 01:00:00 19.1 13 Sudoeste 24 Oeste 0 1007.8 1.3 67
2019-10-03 00:00:00 20.2 19 Oeste 26 Oeste 0 1007.7 2 59
2019-10-02 23:00:00 21.8 17 Oeste 26 Oeste 0 1007.3 2.3 46
2019-10-02 22:00:00 23.6 17 Sudoeste 24 Sudoeste 0 1006.5 1.9 31
2019-10-02 21:00:00 23.8 9 Oeste 21 Oeste 0 1005.7 1.3 32
2019-10-02 20:00:00 27.4 14 Oeste 28 Oeste 0 1005 0.2 24
2019-10-02 19:00:00 29.5 18 Oeste 30 Oeste 0 1004.6 -0.6 21
2019-10-02 18:00:00 30.3 19 Sudoeste 35 Sudoeste 0 1004.4 -1.4 20
2019-10-02 17:00:00 30.3 24 Sudoeste 37 Sudoeste 0 1004.8 -1.7 20
2019-10-02 16:00:00 30.4 23 Sudoeste 37 Sudoeste 0 1005.2 -1.9 20
2019-10-02 15:00:00 28.5 19 Sudoeste 30 Sudoeste 0 1005.8 -1.9 27
2019-10-02 14:00:00 26.8 16 Sudoeste 28 Sudoeste 0 1006.5 -1.1 33
2019-10-02 13:00:00 24.7 15 Sudoeste 26 Oeste 0 1007.1 -0.4 39
2019-10-02 12:00:00 23.1 7 Oeste 13 Sudoeste 0 1007.7 0.5 46
2019-10-02 11:00:00 21.2 0 Calma 9 Sudoeste 0 1007.6 1 53
2019-10-02 10:00:00 17.5 0 Calma 9 Sur 0 1007.5 1 66
2019-10-02 09:00:00 13.9 5 Sur 8 Sudoeste 0 1007.2 1.1 77
2019-10-02 08:00:00 14.1 0 Calma 5 Norte 0 1006.6 0.7 75
2019-10-02 07:00:00 15.3 0 Calma 8 Sur 0 1006.5 0.4 72
2019-10-02 06:00:00 16.2 5 Sudoeste 11 Sudoeste 0 1006.1 -0.2 69
2019-10-02 05:00:00 17.4 8 Sudoeste 18 Oeste 0 1005.9 -0.2 64
2019-10-02 04:00:00 17.8 11 Oeste 17 Oeste 0 1006.1 0 62
2019-10-02 03:00:00 17.6 7 Sudoeste -- -- -- 1006.3 0.6 63
2019-10-02 02:00:00 18.9 4 Sudoeste 15 Oeste 0 1006.1 0.7 57
2019-10-02 01:00:00 18.8 10 Oeste 13 Sudoeste 0 1006.1 1.1 60
2019-10-02 00:00:00 19.6 10 Oeste 11 Oeste 0 1005.7 1.5 56
2019-10-01 23:00:00 21.6 7 Sudoeste 9 Sudoeste 0 1005.4 1.7 48
2019-10-01 22:00:00 24.2 3 Oeste 13 Noroeste 0 1005 1.7 38
2019-10-01 21:00:00 25.6 8 Noroeste 21 Noroeste 0 1004.2 1.3 33
2019-10-01 20:00:00 28.5 15 Noroeste 32 Noroeste 0 1003.7 0.9 28
2019-10-01 19:00:00 30.6 24 Noroeste 37 Oeste 0 1003.3 0.3 25
2019-10-01 18:00:00 31.9 26 Oeste 39 Oeste 0 1002.9 -0.4 21
2019-10-01 17:00:00 31.5 17 Oeste 35 Sudoeste 0 1002.8 -1.3 19
2019-10-01 16:00:00 31.8 25 Oeste 39 Oeste 0 1003 -1.8 18
2019-10-01 15:00:00 30.9 24 Sudoeste 37 Sudoeste 0 1003.3 -1.9 23
2019-10-01 14:00:00 29.7 19 Sudoeste 30 Sudoeste 0 1004.1 -1.4 27
2019-10-01 13:00:00 26.9 14 Oeste 21 Oeste 0 1004.8 -0.1 34
2019-10-01 12:00:00 24.9 5 Oeste 15 Oeste 0 1005.2 0.6 38
2019-10-01 11:00:00 22.2 2 Oeste 8 Oeste 0 1005.5 1.4 44
2019-10-01 10:00:00 18.8 0 Calma 5 Sur 0 1004.9 1 59
2019-10-01 09:00:00 15.4 0 Calma 8 Oeste 0 1004.6 1.3 73
2019-10-01 08:00:00 15.7 0 Calma 8 Sur 0 1004.1 0.2 68
2019-10-01 07:00:00 16 0 Calma 9 Noroeste 0 1003.9 0 69
2019-10-01 06:00:00 15.9 4 Sudeste 9 Sudeste 0 1003.3 -1 69
2019-10-01 05:00:00 16.1 8 Sudoeste 9 Oeste 0 1003.9 -0.1 71
2019-10-01 04:00:00 16.8 0 Calma -- -- 0 1003.9 0 68
2019-10-01 03:00:00 18.7 5 Sur 5 Sur 0 1004.3 0.4 64
2019-10-01 02:00:00 19.4 4 Norte 8 Oeste 0 1004 0.2 60
2019-10-01 01:00:00 20.3 5 Oeste 8 Noroeste 0 1003.9 0.3 56
2019-10-01 00:00:00 22.1 0 Calma 8 Sur 0 1003.9 0.7 50
2019-09-30 23:00:00 23.4 5 Sudoeste 8 Sur 0 1003.8 0.5 47
2019-09-30 22:00:00 24.9 6 Sudoeste 9 Oeste 0 1003.6 0.3 41
2019-09-30 21:00:00 26.6 8 Sudoeste 11 Oeste 0 1003.2 -0.2 37
2019-09-30 20:00:00 30.4 9 Oeste 22 Oeste 0 1003.3 -0.3 26
2019-09-30 19:00:00 32.9 14 Oeste 24 Oeste 0 1003.3 -1.1 22
2019-09-30 18:00:00 33.8 12 Oeste 21 Oeste 0 1003.4 -1.8 20
2019-09-30 17:00:00 34.1 6 Sur 13 Sur 0 1003.6 -2.8 21
2019-09-30 16:00:00 32.5 6 Sudoeste 15 Sudoeste 0 1004.4 -2.8 26
2019-09-30 15:00:00 30.7 4 Sur 13 Oeste 0 1005.2 -2.5 33
2019-09-30 14:00:00 28.5 7 Sudoeste 15 Sur 0 1006.4 -1.5 42
2019-09-30 13:00:00 26.5 3 Sudoeste 13 Sudoeste 0 1007.2 -0.5 48
2019-09-30 12:00:00 24.8 5 Sur 13 Sudeste 0 1007.7 0.6 50
2019-09-30 11:00:00 22.2 6 Este 13 Este 0 1007.9 1.1 56
2019-09-30 10:00:00 19.8 9 Este 13 Este 0 1007.7 1.2 62
2019-09-30 09:00:00 16 0 Calma 4 Nordeste 0 1007.1 0.6 76
2019-09-30 08:00:00 15.4 2 Nordeste 5 Nordeste 0 1006.8 0.3 80
2019-09-30 07:00:00 15.5 0 Calma 8 Sudoeste 0 1006.5 -0.1 77
2019-09-30 06:00:00 16.4 0 Calma 5 Sur 0 1006.5 -0.4 74
2019-09-30 05:00:00 17.4 4 Sur 9 Sur 0 1006.5 -0.2 70
2019-09-30 04:00:00 18.4 3 Oeste 8 Oeste 0 1006.6 0.1 67
2019-09-30 03:00:00 18.9 6 Oeste 11 Sudoeste 0 1006.9 0.7 62
2019-09-30 02:00:00 21 8 Sudoeste 15 Sudoeste 0 1006.7 0.8 59
2019-09-30 01:00:00 22.1 11 Sudoeste 18 Sudoeste 0 1006.5 0.9 52
2019-09-30 00:00:00 23.7 16 Sudoeste 22 Oeste 0 1006.2 1.2 45
2019-09-29 23:00:00 22.8 9 Oeste 13 Oeste 0 1005.9 1.3 42
2019-09-29 22:00:00 24.4 8 Oeste 11 Oeste 0 1005.6 1.1 38
2019-09-29 21:00:00 26.7 8 Oeste 13 Oeste 0 1005 0.2 31
2019-09-29 20:00:00 30.9 11 Oeste 18 Oeste 0 1004.6 -0.5 23
2019-09-29 19:00:00 33.5 13 Oeste 26 Oeste 0 1004.5 -1 18
2019-09-29 18:00:00 34.2 15 Oeste 28 Oeste 0 1004.8 -1.6 18
2019-09-29 17:00:00 34.3 11 Oeste 24 Oeste 0 1005.1 -2.3 18
2019-09-29 16:00:00 33.9 10 Oeste 17 Oeste 0 1005.5 -2.4 18
2019-09-29 15:00:00 32.9 6 Sudoeste 15 Sur 0 1006.4 -2 21
2019-09-29 14:00:00 31.2 5 Sudoeste 11 Sudeste 0 1007.4 -1.1 25
2019-09-29 13:00:00 28.8 6 Sudeste 15 Este 0 1007.9 -0.1 28
2019-09-29 12:00:00 25.9 10 Este 21 Este 0 1008.4 0.8 32
2019-09-29 11:00:00 23.3 11 Este 17 Este 0 1008.5 1.3 36
2019-09-29 10:00:00 19.9 9 Este 13 Nordeste 0 1008 1.1 46
2019-09-29 09:00:00 16.2 5 Este 8 Este 0 1007.6 0.8 64
2019-09-29 08:00:00 14.6 0 Calma 5 Este 0 1007.2 0.1 67
2019-09-29 07:00:00 15 0 Calma -- -- 0 1006.9 -0.1 66
2019-09-29 06:00:00 15.6 3 Norte 5 Norte 0 1006.8 -0.3 65
2019-09-29 05:00:00 16 0 Calma 4 Sur 0 1007.1 0.2 60
2019-09-29 04:00:00 16.9 0 Calma 4 Oeste 0 1007 0.1 57
2019-09-29 03:00:00 17.6 0 Calma 4 Sur 0 1007.1 0.4 53
2019-09-29 02:00:00 19 2 Sur 5 Sudoeste 0 1006.9 0.7 53
2019-09-29 01:00:00 20.5 0 Calma 11 Noroeste 0 1006.9 1.1 43
2019-09-29 00:00:00 21.5 3 Sur 5 Sudoeste 0 1006.7 1.5 43
2019-09-28 23:00:00 22.8 4 Sudoeste -- -- 0 1006.2 -- 37
2019-09-28 22:00:00 24.8 6 Sudoeste -- -- 0 1005.8 0.8 34
2019-09-28 21:00:00 28 3 Sudoeste 9 Noroeste 0 1005.2 0.1 25
2019-09-28 20:00:00 -- -- -- -- -- -- -- -- --
2019-09-28 19:00:00 35 8 Oeste 17 Oeste 0 1005 -1 14
2019-09-28 18:00:00 -- 7 Oeste 18 Oeste 0 1005.1 -1.6 14
2019-09-28 17:00:00 34.7 6 Noroeste 17 Sudoeste 0 1005.3 -2.4 14
2019-09-28 16:00:00 34.4 3 Noroeste 17 Nordeste 0 1006 -2.5 17
2019-09-28 15:00:00 32.7 5 Este 15 Este 0 1006.7 -2.4 21
2019-09-28 14:00:00 30.8 9 Este 18 Este 0 1007.7 -1.5 25
2019-09-28 13:00:00 28.6 12 Este 22 Este 0 1008.5 -0.5 29
2019-09-28 12:00:00 26.2 15 Este 26 Nordeste 0 1009.1 0.5 33
2019-09-28 11:00:00 23.1 15 Este 22 Este 0 1009.2 1.2 41
2019-09-28 10:00:00 19.9 12 Este 21 Este 0 1009 1.3 50
2019-09-28 09:00:00 16.6 6 Este 11 Este 0 1008.6 1.1 64
2019-09-28 08:00:00 15.3 6 Este 9 Este 0 1008 0.6 70
2019-09-28 07:00:00 15.6 0 Calma 8 Este 0 1007.7 0.2 69
2019-09-28 06:00:00 16.6 0 Calma 8 Nordeste 0 1007.5 -0.1 67
2019-09-28 05:00:00 16.8 6 Nordeste 8 Nordeste 0 1007.4 -0.4 63
2019-09-28 04:00:00 18.2 4 Sur -- -- 0 1007.5 0 56
2019-09-28 03:00:00 19.7 0 Calma 13 Oeste 0 1007.6 0.1 51
2019-09-28 02:00:00 19.9 4 Oeste 11 Oeste 0 1007.8 0.7 50
2019-09-28 01:00:00 20.7 3 Noroeste 8 Sudoeste 0 1007.5 0.9 45
2019-09-28 00:00:00 21.7 0 Calma 8 Oeste 0 1007.5 1.8 40
2019-09-27 23:00:00 23.2 7 Sudoeste 11 Sudoeste 0 1007.1 1.8 35
2019-09-27 22:00:00 24.8 4 Sur 8 Sur 0 1006.6 1.5 31
2019-09-27 21:00:00 27.4 5 Sur 11 Oeste 0 1005.7 0.4 27
2019-09-27 20:00:00 31 8 Oeste 17 Oeste 0 1005.3 -0.4 21
2019-09-27 19:00:00 33.1 11 Oeste 21 Oeste 0 1005.1 -1.1 17
2019-09-27 18:00:00 33.6 13 Oeste 24 Oeste 0 1005.3 -1.6 14
2019-09-27 17:00:00 33.3 12 Oeste 28 Oeste 0 1005.7 -2.1 16
2019-09-27 16:00:00 32.5 13 Oeste 24 Oeste 0 1006.2 -2 17
2019-09-27 15:00:00 31.3 12 Sudoeste 21 Oeste 0 1006.9 -1.9 22
2019-09-27 14:00:00 29.4 4 Oeste 13 Oeste 0 1007.8 -1.3 28
2019-09-27 13:00:00 27.8 4 Sudoeste 13 Sudeste 0 1008.2 -0.9 32
2019-09-27 12:00:00 25.3 10 Este 18 Este 0 1008.8 0 36
2019-09-27 11:00:00 22.1 13 Este 17 Este 0 1009.1 0.7 44
2019-09-27 10:00:00 19.3 11 Este 17 Este 0 1009.1 1 53
2019-09-27 09:00:00 16.1 4 Este 5 Este 0 1008.8 0.9 65
2019-09-27 08:00:00 13.9 2 Este 5 Este 0 1008.4 0.6 71
2019-09-27 07:00:00 14.1 0 Calma 4 Sur 0 1008.1 0.4 68
2019-09-27 06:00:00 15 0 Calma 4 Sur 0 1007.9 0.1 64
2019-09-27 05:00:00 15.6 0 Calma 5 Sur 0 1007.8 0.2 60
2019-09-27 04:00:00 16.1 0 Calma 8 Sudoeste 0 1007.7 0.1 58
2019-09-27 03:00:00 17 5 Sudoeste 5 Sudoeste 0 1007.8 0.6 56
2019-09-27 02:00:00 18.7 2 Sur 5 Norte 0 1007.6 0.7 53
2019-09-27 01:00:00 19.1 0 Calma 8 Oeste 0 1007.6 1.2 47
2019-09-27 00:00:00 20 8 Sudoeste 11 Sudoeste 0 1007.2 1.4 46
2019-09-26 23:00:00 21.9 2 Sudoeste 5 Sudoeste 0 1006.9 1.4 42
2019-09-26 22:00:00 23.7 6 Sur 9 Sur 0 1006.4 1 37
2019-09-26 21:00:00 26.3 2 Noroeste 13 Oeste 0 1005.8 0.5 28
2019-09-26 20:00:00 30.5 9 Oeste 17 Sudoeste 0 1005.5 -0.3 21
2019-09-26 19:00:00 32.6 11 Sudoeste 18 Oeste 0 1005.4 -0.9 17
2019-09-26 18:00:00 32.9 13 Sudoeste 22 Sudoeste 0 1005.3 -1.4 16
2019-09-26 17:00:00 32.8 12 Sudoeste 21 Oeste 0 1005.8 -1.7 17
2019-09-26 16:00:00 32.3 9 Oeste 22 Oeste 0 1006.3 -2 20
2019-09-26 15:00:00 31.4 9 Sudoeste 28 Sudoeste 0 1006.7 -2 22
2019-09-26 14:00:00 29.9 3 Sur 15 Este 0 1007.5 -1.2 26
2019-09-26 13:00:00 27.6 7 Nordeste 17 Nordeste 0 1008.3 -0.3 31
2019-09-26 12:00:00 25.1 12 Este 21 Este 0 1008.7 0.6 36
2019-09-26 11:00:00 22 11 Este 15 Este 0 1008.7 1.2 45
2019-09-26 10:00:00 18.3 0 Calma 5 Sur 0 1008.6 1.5 57
2019-09-26 09:00:00 14.6 0 Calma 5 Sudoeste 0 1008.1 1.4 69
2019-09-26 08:00:00 13.3 0 Calma 4 Sur 0 1007.5 1 73
2019-09-26 07:00:00 13.6 0 Calma 5 Sudoeste 0 1007.1 0.6 71
2019-09-26 06:00:00 13.8 3 Noroeste 5 Noroeste 0 1006.7 0.1 68
2019-09-26 05:00:00 14.8 0 Calma 5 Oeste 0 1006.5 0.1 64
2019-09-26 04:00:00 16.1 3 Sur 8 Oeste 0 1006.5 0.2 60
2019-09-26 03:00:00 17 5 Sudoeste 8 Oeste 0 1006.6 0.4 59
2019-09-26 02:00:00 18.4 5 Sur 9 Sur 0 1006.4 0.3 52
2019-09-26 01:00:00 20 6 Sudoeste 9 Sur 0 1006.3 0.7 46
2019-09-26 00:00:00 23.4 2 Sudeste 15 Norte 0 1006.2 1.2 35
2019-09-25 23:00:00 25.8 4 Este -- -- -- 1006.1 1.5 29
2019-09-25 22:00:00 25 6 Sur 13 Noroeste 0 1005.6 1.4 31
2019-09-25 21:00:00 26.6 12 Noroeste 15 Noroeste 0 1005 0.8 27
2019-09-25 20:00:00 29.4 11 Oeste 28 Sudoeste 0 1004.6 0.1 24
2019-09-25 19:00:00 31 19 Sudoeste 32 Sudoeste 0 1004.2 -1 22
2019-09-25 18:00:00 31.8 19 Sudoeste 30 Oeste 0 1004.2 -1.8 19
2019-09-25 17:00:00 31.3 18 Sudoeste 32 Sudoeste 0 1004.5 -2.2 20
2019-09-25 16:00:00 30.6 17 Sudoeste 26 Oeste 0 1005.2 -2.2 22
2019-09-25 15:00:00 29.3 14 Oeste 22 Oeste 0 1006 -2.1 31
2019-09-25 14:00:00 28.2 12 Sudoeste -- -- -- 1006.7 -1.4 33
2019-09-25 13:00:00 27 11 Sudoeste 21 Sudoeste 0 1007.4 -0.4 38
2019-09-25 12:00:00 25.8 4 Sudeste 13 Sur 0 1008.1 0.8 42
2019-09-25 11:00:00 24.2 6 Sudeste 11 Sur 0 1008.1 1.1 52
2019-09-25 10:00:00 21.5 4 Sur 9 Sur 0 1007.8 1.2 60
2019-09-25 09:00:00 18.2 6 Sur 9 Sudeste 0 1007.3 0.7 67
2019-09-25 08:00:00 17 5 Sur 8 Sur 0 1007 0.5 70
2019-09-25 07:00:00 18.2 5 Sur 9 Sur 0 1006.6 -0.2 66
2019-09-25 06:00:00 17.9 5 Oeste 9 Oeste 0 1006.6 -0.3 66
2019-09-25 05:00:00 18.9 4 Sudoeste 9 Sur 0 1006.5 -0.1 61
2019-09-25 04:00:00 19.4 7 Sudoeste 9 Sur 0 1006.8 0.1 60
2019-09-25 03:00:00 20.6 6 Sudoeste 9 Oeste 0 1006.9 0.2 56
2019-09-25 02:00:00 22 7 Sur 11 Sur 0 1006.6 0.1 51
2019-09-25 01:00:00 23.9 3 Oeste 24 Oeste 0 1006.7 0.6 50
2019-09-25 00:00:00 26.6 11 Norte 26 Norte 0 1006.7 1.1 48
2019-09-24 23:00:00 26.6 13 Norte 24 Norte 0 1006.5 1.3 38
2019-09-24 22:00:00 24.7 2 Sudoeste 8 Noroeste 0 1006.1 0.9 42
2019-09-24 21:00:00 27.1 7 Oeste 11 Oeste 0 1005.6 0.2 34
2019-09-24 20:00:00 31 9 Oeste 22 Oeste 0 1005.2 -0.8 24
2019-09-24 19:00:00 32.8 12 Sudoeste 22 Sudoeste 0 1005.2 -1.3 21
2019-09-24 18:00:00 33 15 Oeste 28 Oeste 0 1005.4 -2 19
2019-09-24 17:00:00 33 13 Oeste 24 Oeste 0 1006 -2.5 18
2019-09-24 16:00:00 32.3 9 Sur 21 Oeste 0 1006.5 -3.1 20
2019-09-24 15:00:00 30.9 6 Sudoeste 17 Sudoeste 0 1007.4 -3 23
2019-09-24 14:00:00 29.6 4 Sur 13 Sur 0 1008.5 -2.2 27
2019-09-24 13:00:00 26.9 3 Sudeste 13 Este 0 1009.6 -0.5 33
2019-09-24 12:00:00 24.3 8 Este 15 Este 0 1010.4 0.8 39
2019-09-24 11:00:00 21.5 8 Este 17 Este 0 1010.7 1.4 47
2019-09-24 10:00:00 18.7 0 Calma -- -- 0 1010.1 1 62
2019-09-24 09:00:00 14.5 0 Calma 4 Sudoeste 0 1009.6 0.9 77
2019-09-24 08:00:00 13.5 0 Calma 8 Noroeste 0 1009.3 0.5 80
2019-09-24 07:00:00 13.5 3 Noroeste -- -- 0 1009.1 0.6 81
2019-09-24 06:00:00 14.3 0 Calma 5 Sudeste 0 1008.7 0 77
2019-09-24 05:00:00 15 4 Sudoeste 5 Sudoeste 0 1008.8 0 76
2019-09-24 04:00:00 15.6 3 Sudoeste 5 Sudoeste 0 1008.5 -0.3 73
2019-09-24 03:00:00 16.3 3 Oeste 5 Oeste 0 1008.7 -0.2 72
2019-09-24 02:00:00 17.3 0 Calma 5 Oeste 0 1008.8 0 69
2019-09-24 01:00:00 18.7 0 Calma 4 Noroeste 0 1008.8 0.3 65
2019-09-24 00:00:00 20.2 0 Calma 5 Sur 0 1008.9 1 59
2019-09-23 23:00:00 21.5 0 Calma 8 Sudoeste 0 1008.8 1.4 52
2019-09-23 22:00:00 23.6 5 Sudoeste 11 Sur 0 1008.5 1.3 52
2019-09-23 21:00:00 25.8 0 Calma -- -- 0 1007.9 0.6 42
2019-09-23 20:00:00 29.5 0 Calma 9 Oeste 0 1007.4 -0.2 29
2019-09-23 19:00:00 30.2 7 Oeste 13 Sur 0 1007.2 -0.7 27
2019-09-23 18:00:00 30.7 4 Sudoeste 13 Sur 0 1007.3 -1.2 25
2019-09-23 17:00:00 30.1 4 Sudeste 17 Este 0 1007.6 -1.5 26
2019-09-23 16:00:00 29.1 7 Sudeste 15 Sur 0 1007.9 -1.8 29
2019-09-23 15:00:00 27.8 6 Sudeste 21 Sudeste 0 1008.5 -1.9 31
2019-09-23 14:00:00 26.6 10 Este 24 Sudeste 0 1009.1 -1.6 33
2019-09-23 13:00:00 25.5 11 Este 21 Este 0 1009.7 -0.7 39
2019-09-23 12:00:00 23.5 11 Este 17 Este 0 1010.4 0.5 46
2019-09-23 11:00:00 20.4 7 Este 11 Este 0 1010.7 1.4 60
2019-09-23 10:00:00 17.1 0 Calma 5 Sudeste 0 1010.4 1.6 77
2019-09-23 09:00:00 13.5 0 Calma -- -- 0 1009.9 1.7 90
2019-09-23 08:00:00 12.8 4 Sur 5 Sur 0 1009.3 1.2 90
2019-09-23 07:00:00 13.1 0 Calma 4 Sur 0 1008.8 0.8 87
2019-09-23 06:00:00 13.5 0 Calma 5 Sur 0 1008.2 0.2 86
2019-09-23 05:00:00 14.4 0 Calma 9 Sur 0 1008.1 0.1 82
2019-09-23 04:00:00 15 4 Oeste 5 Oeste 0 1008 0.2 81
2019-09-23 03:00:00 16.3 0 Calma 11 Oeste 0 1008 0.5 76
2019-09-23 02:00:00 17.4 6 Oeste 11 Oeste 0 1008 0.9 72
2019-09-23 01:00:00 19.4 2 Sur 9 Sudoeste 0 1007.8 1.1 63
2019-09-23 00:00:00 18.9 0 Calma 9 Oeste 0 1007.5 1.7 68
2019-09-22 23:00:00 20.6 4 Sudeste 15 Sur 0 1007.1 1.8 58
2019-09-22 22:00:00 20.5 9 Sur 9 Sur 0 1006.7 1.8 64
2019-09-22 21:00:00 22.1 8 Oeste 13 Oeste 0 1005.8 1 56
2019-09-22 20:00:00 25 10 Sudoeste 22 Oeste 0 1005.3 0.7 38
2019-09-22 19:00:00 26.6 16 Sudoeste 30 Sudoeste 0 1004.9 -0.4 33
2019-09-22 18:00:00 26.8 19 Sudoeste 30 Sudoeste 0 1004.8 -0.5 39
2019-09-22 17:00:00 26.7 17 Sudoeste 30 Sudoeste 0 1004.6 -1 45
2019-09-22 16:00:00 25.3 6 Sudoeste 17 Sudoeste 0 1005.3 -0.1 57
2019-09-22 15:00:00 24.2 4 Sudeste 13 Sur 0 1005.3 -0.3 70
2019-09-22 14:00:00 21.4 3 Nordeste 13 Noroeste 0 1005.6 0.2 80
2019-09-22 13:00:00 20.8 5 Sudoeste 9 Sur 0.1 1005.4 0.5 89
2019-09-22 12:00:00 19.3 4 Norte 9 Norte 0.8 1005.6 1.3 94
2019-09-22 11:00:00 19.5 5 Norte 13 Norte 0.7 1005.4 1.5 92
2019-09-22 10:00:00 20.2 6 Norte 9 Norte 0.3 1004.9 1.3 85
2019-09-22 09:00:00 20.6 0 Calma 9 Sur 0 1004.3 1 75
2019-09-22 08:00:00 20.7 7 Sudoeste 13 Sur 0 1003.9 0.5 77
2019-09-22 07:00:00 20.7 7 Sur 13 Sudoeste 0 1003.6 -0.2 78
2019-09-22 06:00:00 20.9 8 Sur 11 Sur 0 1003.3 -0.7 78
2019-09-22 05:00:00 20.8 3 Sur 11 Oeste 0 1003.4 -0.6 79
2019-09-22 04:00:00 20.9 7 Oeste 11 Sudoeste 0 1003.8 -0.1 80
2019-09-22 03:00:00 21 10 Sudoeste 18 Sudoeste 0 1004 0.1 79
2019-09-22 02:00:00 21.5 14 Sudoeste 22 Oeste 0 1004 -0.2 74
2019-09-22 01:00:00 21.8 12 Sudoeste 18 Sudoeste 0 1003.9 0.6 74
2019-09-22 00:00:00 22.3 10 Sudoeste 24 Sudoeste 0 1003.9 1.2 72
2019-09-21 23:00:00 23.1 15 Sudoeste 22 Sudoeste 0 1004.2 1.9 66
2019-09-21 22:00:00 23.4 12 Oeste 18 Oeste 0 1003.3 0.9 63
2019-09-21 21:00:00 23.9 11 Sudoeste 18 Oeste 0 1002.7 0.3 59
2019-09-21 20:00:00 25 14 Sudoeste 26 Oeste 0 1002.3 -0.3 54
2019-09-21 19:00:00 25.5 15 Oeste 24 Oeste 0 1002.4 -0.5 48
2019-09-21 18:00:00 25.5 12 Oeste 22 Oeste 0 1002.4 -0.8 47
2019-09-21 17:00:00 25.5 10 Oeste 18 Oeste 0.1 1002.6 -1.1 52
2019-09-21 16:00:00 24.4 10 Oeste 24 Oeste 0 1002.9 -1.5 61
2019-09-21 15:00:00 24.8 15 Oeste 30 Oeste 0 1003.2 -1.1 59
2019-09-21 14:00:00 24.7 14 Sudoeste 24 Oeste 0 1003.7 -0.4 62
2019-09-21 13:00:00 23.7 12 Sudoeste 21 Sudoeste 0 1004.4 0.7 65
2019-09-21 12:00:00 22.5 8 Oeste 15 Oeste 0 1004.3 1.1 68
2019-09-21 11:00:00 22.4 4 Sudoeste 15 Oeste 0 1004.1 1 68
2019-09-21 10:00:00 21.7 3 Oeste 9 Oeste 0 1003.7 0.8 70
2019-09-21 09:00:00 20.9 0 Calma 5 Norte 0 1003.2 0.3 71
2019-09-21 08:00:00 20.8 0 Calma 8 Sur 0 1003.1 0.2 72
2019-09-21 07:00:00 20.8 5 Oeste 15 Sudoeste 0 1002.9 -0.1 70
2019-09-21 06:00:00 20.5 11 Sudoeste 15 Sudoeste 0 1002.9 -0.2 71
2019-09-21 05:00:00 20.3 9 Oeste 13 Sudoeste 0 1002.9 -0.4 72
2019-09-21 04:00:00 21 9 Sudoeste 17 Sudoeste 0 1003 -0.6 69
2019-09-21 03:00:00 21.6 10 Oeste 21 Oeste 0 1003.1 -0.5 69
2019-09-21 02:00:00 22.4 15 Oeste 24 Sudoeste 0 1003.3 0.1 68
2019-09-21 01:00:00 23.5 13 Oeste 18 Oeste 0 1003.6 1.2 65
2019-09-21 00:00:00 23.9 9 Oeste 15 Oeste 0 1003.6 1 62
2019-09-20 23:00:00 23.7 8 Sudoeste 13 Sudoeste 0 1003.2 0.9 62
2019-09-20 22:00:00 23.5 10 Sur 26 Sur 0 1002.4 0 59
2019-09-20 21:00:00 25 13 Sudoeste 21 Sudoeste 0 1002.6 0.2 57
2019-09-20 20:00:00 26 12 Sudoeste 22 Oeste 0 1002.3 0.2 52
2019-09-20 19:00:00 26.6 17 Oeste 30 Oeste 0 1002.4 0.1 50
2019-09-20 18:00:00 27.7 18 Oeste 30 Oeste 0 1002.4 -0.5 49
2019-09-20 17:00:00 27.6 9 Oeste 15 Oeste 0 1002.1 -1.6 49
2019-09-20 16:00:00 27.6 5 Noroeste 11 Noroeste 0 1002.3 -1.9 48
2019-09-20 15:00:00 27.7 4 Este 15 Este 0 1002.9 -2.2 48
2019-09-20 14:00:00 26.4 3 Nordeste 13 Este 0 1003.7 -1.4 50
2019-09-20 13:00:00 25 7 Este 13 Nordeste 0 1004.2 -0.4 51
2019-09-20 12:00:00 23.2 7 Este 13 Este 0 1005.1 0.9 56
2019-09-20 11:00:00 21.7 6 Este 11 Este 0 1005.1 1.3 61
2019-09-20 10:00:00 20 2 Este 8 Este 0 1004.6 0.9 69
2019-09-20 09:00:00 18.8 0 Calma 5 Este 0 1004.2 0.2 74
2019-09-20 08:00:00 18.1 0 Calma 5 Este 0 1003.8 -0.1 75
2019-09-20 07:00:00 18.4 2 Norte 5 Oeste 0 1003.7 -0.6 71
2019-09-20 06:00:00 18.6 4 Sudoeste 9 Sur 0 1004 -0.7 72
2019-09-20 05:00:00 20.1 5 Sur -- -- 0 1003.9 -0.8 63
2019-09-20 04:00:00 20.8 0 Calma 11 Oeste 0 1004.3 -0.2 60
2019-09-20 03:00:00 21.4 9 Sudoeste 13 Oeste 0 1004.7 0.6 57
2019-09-20 02:00:00 21.5 8 Oeste 11 Noroeste 0 1004.7 0.8 55
2019-09-20 01:00:00 21.6 9 Oeste 11 Oeste 0 1004.5 0.9 57
2019-09-20 00:00:00 22.7 8 Sudoeste 9 Sudoeste 0 1004.1 1.1 52